Hebe — A8OH7 — position and weather

sailwx.info

Track history (hours):
 
Tides and Currents Weather Stations Pressure Air Temp Water Temp Dewpoint Dewpoint Depression Visibility Wind Speed Wind Dir Waves Ship Positions

Hebe

Last reported at 2015-Jul-23 17:30 UTC. Time now 2015-Jul-30 10:12 UTC.
Position S 26°06' E 153°29'.

Length 220 m; draft 9.4 m.

Type: Ship. MMSI: 636091480.

Date/timePositionNaut miles runAvg speedWind from/ knotsBaromVisibWave heightAir tempDewpointWater temp
2015-Jul-23 17:30S 26°06' E 153°29'1818.3
2015-Jul-23 16:31S 26°23' E 153°23'1818.1
2015-Jul-23 15:33S 26°39' E 153°14'1313.0
2015-Jul-23 14:34S 26°51' E 153°09'1616.5
2015-Jul-23 13:34S 27°05' E 153°19'1514.6
2015-Jul-23 12:33S 27°19' E 153°13'4 3.6
2015-Jul-23 11:28S 27°22' E 153°10'0 0.0
2015-Jul-23 10:31S 27°22' E 153°10'0 0.0
2015-Jul-23 09:33S 27°22' E 153°10'0 0.0
2015-Jul-23 08:33S 27°22' E 153°10'0 0.0
2015-Jul-23 07:32S 27°22' E 153°10'0 0.0
2015-Jul-23 06:32S 27°22' E 153°10'0 0.0
2015-Jul-23 05:32S 27°22' E 153°10'0 0.0
2015-Jul-23 04:31S 27°22' E 153°10'0 0.0
2015-Jul-23 03:31S 27°22' E 153°10'0 0.0
2015-Jul-23 02:33S 27°22' E 153°10'0 0.0
2015-Jul-23 01:33S 27°22' E 153°10'0 0.0
2015-Jul-23 00:32S 27°22' E 153°10'0 0.0
2015-Jul-22 23:32S 27°22' E 153°10'0 0.0
2015-Jul-22 22:32S 27°22' E 153°10'0 0.0
2015-Jul-22 21:31S 27°22' E 153°10'0 0.0
2015-Jul-22 20:31S 27°22' E 153°10'0 0.2
2015-Jul-22 19:33S 27°22' E 153°10'1212.2
2015-Jul-22 18:33S 27°13' E 153°20'1515.1
2015-Jul-22 17:33S 26°59' E 153°14'1313.1
2015-Jul-22 16:33S 26°47' E 153°11'6 5.8
2015-Jul-22 15:33S 26°45' E 153°17'1111.0
2015-Jul-22 14:33S 26°50' E 153°28'1412.8
2015-Jul-22 13:27S 26°55' E 153°43'1612.5
2015-Jul-22 12:12S 27°02' E 153°59'  
2015-Jul-19 04:32S 36°12' E 175°00'4010.0
2015-Jul-19 00:33S 36°50' E 174°47'0 0.0
2015-Jul-18 23:31S 36°50' E 174°47'0 0.0
2015-Jul-18 22:28S 36°50' E 174°47'0 0.0
2015-Jul-18 21:33S 36°50' E 174°47'0 0.0
2015-Jul-18 20:33S 36°50' E 174°47'0 0.0
2015-Jul-18 19:32S 36°50' E 174°47'0 0.0
2015-Jul-18 18:32S 36°50' E 174°47'0 0.0
2015-Jul-18 17:31S 36°50' E 174°47'0 0.0
2015-Jul-18 16:31S 36°50' E 174°47'0 0.0
2015-Jul-18 15:34S 36°50' E 174°47'0 0.0
2015-Jul-18 14:33S 36°50' E 174°47'0 0.0
2015-Jul-18 13:33S 36°50' E 174°47'0 0.0
2015-Jul-18 12:32S 36°50' E 174°47'0 0.0
2015-Jul-18 11:32S 36°50' E 174°47'0 0.0
2015-Jul-18 10:28S 36°50' E 174°47'0 0.1
2015-Jul-18 09:33S 36°50' E 174°47'9 8.9
2015-Jul-18 08:33S 36°42' E 174°52'6 6.1
2015-Jul-18 07:33S 36°37' E 174°56'1211.6
2015-Jul-18 06:33S 36°29' E 175°07'1212.0
2015-Jul-18 05:33S 36°23' E 175°19'  
Track history (hours):
 
Tides and Currents Weather Stations Pressure Air Temp Water Temp Dewpoint Dewpoint Depression Visibility Wind Speed Wind Dir Waves Ship Positions

Hebe

Last reported at 2015-Jul-23 17:30 UTC. Time now 2015-Jul-30 10:12 UTC.
Position S 26°06' E 153°29'.

Length 220 m; draft 9.4 m.

Type: Ship. MMSI: 636091480.

Date/timePositionNaut miles runAvg speedWind from/ knotsBaromVisibWave heightAir tempDewpointWater temp
2015-Jul-23 17:30S 26°06' E 153°29'1818.3
2015-Jul-23 16:31S 26°23' E 153°23'1818.1
2015-Jul-23 15:33S 26°39' E 153°14'1313.0
2015-Jul-23 14:34S 26°51' E 153°09'1616.5
2015-Jul-23 13:34S 27°05' E 153°19'1514.6
2015-Jul-23 12:33S 27°19' E 153°13'4 3.6
2015-Jul-23 11:28S 27°22' E 153°10'0 0.0
2015-Jul-23 10:31S 27°22' E 153°10'0 0.0
2015-Jul-23 09:33S 27°22' E 153°10'0 0.0
2015-Jul-23 08:33S 27°22' E 153°10'0 0.0
2015-Jul-23 07:32S 27°22' E 153°10'0 0.0
2015-Jul-23 06:32S 27°22' E 153°10'0 0.0
2015-Jul-23 05:32S 27°22' E 153°10'0 0.0
2015-Jul-23 04:31S 27°22' E 153°10'0 0.0
2015-Jul-23 03:31S 27°22' E 153°10'0 0.0
2015-Jul-23 02:33S 27°22' E 153°10'0 0.0
2015-Jul-23 01:33S 27°22' E 153°10'0 0.0
2015-Jul-23 00:32S 27°22' E 153°10'0 0.0
2015-Jul-22 23:32S 27°22' E 153°10'0 0.0
2015-Jul-22 22:32S 27°22' E 153°10'0 0.0
2015-Jul-22 21:31S 27°22' E 153°10'0 0.0
2015-Jul-22 20:31S 27°22' E 153°10'0 0.2
2015-Jul-22 19:33S 27°22' E 153°10'1212.2
2015-Jul-22 18:33S 27°13' E 153°20'1515.1
2015-Jul-22 17:33S 26°59' E 153°14'1313.1
2015-Jul-22 16:33S 26°47' E 153°11'6 5.8
2015-Jul-22 15:33S 26°45' E 153°17'1111.0
2015-Jul-22 14:33S 26°50' E 153°28'1412.8
2015-Jul-22 13:27S 26°55' E 153°43'1612.5
2015-Jul-22 12:12S 27°02' E 153°59'  
2015-Jul-19 04:32S 36°12' E 175°00'4010.0
2015-Jul-19 00:33S 36°50' E 174°47'0 0.0
2015-Jul-18 23:31S 36°50' E 174°47'0 0.0
2015-Jul-18 22:28S 36°50' E 174°47'0 0.0
2015-Jul-18 21:33S 36°50' E 174°47'0 0.0
2015-Jul-18 20:33S 36°50' E 174°47'0 0.0
2015-Jul-18 19:32S 36°50' E 174°47'0 0.0
2015-Jul-18 18:32S 36°50' E 174°47'0 0.0
2015-Jul-18 17:31S 36°50' E 174°47'0 0.0
2015-Jul-18 16:31S 36°50' E 174°47'0 0.0
2015-Jul-18 15:34S 36°50' E 174°47'0 0.0
2015-Jul-18 14:33S 36°50' E 174°47'0 0.0
2015-Jul-18 13:33S 36°50' E 174°47'0 0.0
2015-Jul-18 12:32S 36°50' E 174°47'0 0.0
2015-Jul-18 11:32S 36°50' E 174°47'0 0.0
2015-Jul-18 10:28S 36°50' E 174°47'0 0.1
2015-Jul-18 09:33S 36°50' E 174°47'9 8.9
2015-Jul-18 08:33S 36°42' E 174°52'6 6.1
2015-Jul-18 07:33S 36°37' E 174°56'1211.6
2015-Jul-18 06:33S 36°29' E 175°07'1212.0
2015-Jul-18 05:33S 36°23' E 175°19'  

Dump ship's entire track history